Time;durP1;ratioP1;P1;durP2;ratioP2;P2;SDS_P1;SDS_P2;PMS_P1;PMS_P2;Temp;Humidity;BMP_temperature;BMP_pressure;BME280_temperature;BME280_humidity;BME280_pressure;Samples;Min_cycle;Max_cycle;Signal;HPM_P1;HPM_P2
2022/05/25 00:01:01;;;;;;;11.10;6.18;;;;;;;13.54;89.37;91992.97;5007542;28;20095;-76
2022/05/25 00:03:28;;;;;;;11.68;5.57;;;;;;;13.54;88.76;91999.00;4991573;28;20029;-75
2022/05/25 00:05:55;;;;;;;13.30;6.03;;;;;;;13.58;91.22;91990.47;5008031;28;20149;-77
2022/05/25 00:08:21;;;;;;;11.32;6.28;;;;;;;13.52;91.79;91993.28;4992126;28;20038;-76
2022/05/25 00:10:47;;;;;;;15.55;6.70;;;;;;;13.49;93.89;91983.41;4984881;28;20080;-75
2022/05/25 00:13:12;;;;;;;17.65;6.90;;;;;;;13.44;93.09;91983.56;5011378;28;20077;-76
2022/05/25 00:15:38;;;;;;;20.02;5.97;;;;;;;13.39;94.93;91980.34;5009790;28;20125;-75
2022/05/25 00:18:04;;;;;;;11.85;6.00;;;;;;;13.35;94.46;91969.66;5011540;28;20042;-76
2022/05/25 00:20:30;;;;;;;11.65;6.18;;;;;;;13.31;95.68;91980.06;4991365;28;20096;-75
2022/05/25 00:22:57;;;;;;;14.45;5.88;;;;;;;13.28;95.20;91972.00;4993323;28;20061;-76
2022/05/25 00:25:30;;;;;;;14.65;5.78;;;;;;;13.25;95.31;91968.13;4993992;28;20046;-75
2022/05/25 00:28:00;;;;;;;15.57;6.05;;;;;;;13.23;95.53;91967.69;5010148;28;20511;-76
2022/05/25 00:30:27;;;;;;;13.48;6.50;;;;;;;13.21;95.31;91969.06;5011311;28;20480;-76
2022/05/25 00:32:54;;;;;;;20.35;6.07;;;;;;;13.19;96.42;91969.38;4974675;28;20042;-76
2022/05/25 00:35:22;;;;;;;14.45;6.05;;;;;;;13.17;95.39;91973.41;4982612;28;20041;-76
2022/05/25 00:37:48;;;;;;;18.73;6.30;;;;;;;13.17;95.04;91978.66;4991248;28;20146;-75
2022/05/25 00:40:18;;;;;;;15.45;7.55;;;;;;;13.12;93.26;91987.50;5006203;28;20038;-76
2022/05/25 00:42:44;;;;;;;16.15;7.22;;;;;;;13.12;93.73;91993.50;4978291;28;20231;-76
2022/05/25 00:45:11;;;;;;;16.40;7.80;;;;;;;13.11;93.39;91999.88;4945303;28;20446;-76
2022/05/25 00:47:40;;;;;;;15.48;5.95;;;;;;;13.20;92.13;92014.84;5010099;28;20139;-76
2022/05/25 00:50:08;;;;;;;14.13;6.28;;;;;;;13.07;92.55;92014.72;5007770;28;20034;-76
2022/05/25 00:52:33;;;;;;;14.88;6.22;;;;;;;13.10;93.61;92029.88;4991410;28;20038;-76
2022/05/25 00:55:03;;;;;;;14.00;6.57;;;;;;;13.01;93.99;92038.81;5009920;28;20049;-76
2022/05/25 00:57:36;;;;;;;19.90;6.63;;;;;;;12.97;94.56;92043.94;5010980;28;20088;-76
2022/05/25 01:00:14;;;;;;;23.63;7.40;;;;;;;13.14;95.14;92043.13;5009344;28;20044;-75
2022/05/25 01:02:43;;;;;;;13.98;7.57;;;;;;;12.96;95.43;92057.38;4999133;28;20398;-74
2022/05/25 01:05:10;;;;;;;18.15;7.88;;;;;;;12.90;96.68;92048.88;5006171;28;20439;-76
2022/05/25 01:08:02;;;;;;;22.88;7.75;;;;;;;12.89;97.25;92055.22;4993251;28;20133;-76
2022/05/25 01:10:32;;;;;;;14.50;7.85;;;;;;;12.91;97.96;92053.84;5013075;28;20057;-77
2022/05/25 01:13:19;;;;;;;19.00;7.78;;;;;;;12.92;98.73;92049.34;5006125;28;20044;-76
2022/05/25 01:16:08;;;;;;;29.05;9.27;;;;;;;12.91;99.78;92050.44;5012624;28;20527;-76
2022/05/25 01:18:58;;;;;;;22.13;9.18;;;;;;;12.90;100.00;92056.75;5013923;28;20044;-75
2022/05/25 01:21:37;;;;;;;17.83;9.20;;;;;;;12.87;100.00;92063.41;4994695;28;20045;-76
2022/05/25 01:24:24;;;;;;;17.38;9.23;;;;;;;12.90;100.00;92059.38;4995718;28;20132;-77
2022/05/25 01:27:15;;;;;;;23.40;9.82;;;;;;;12.87;100.00;92060.00;4993307;28;20030;-76
2022/05/25 01:29:55;;;;;;;25.35;10.90;;;;;;;12.87;100.00;92057.38;5014901;28;20049;-77
2022/05/25 01:32:38;;;;;;;26.60;10.88;;;;;;;12.81;100.00;92045.50;5013389;28;20033;-76
2022/05/25 01:35:15;;;;;;;25.30;10.18;;;;;;;12.77;100.00;92049.84;5013792;28;20137;-75
2022/05/25 01:38:04;;;;;;;27.60;10.05;;;;;;;12.71;100.00;92047.34;5013550;28;20038;-76
2022/05/25 01:40:41;;;;;;;14.80;6.07;;;;;;;12.69;100.00;92051.38;4995252;28;20429;-75
2022/05/25 01:43:19;;;;;;;22.80;6.05;;;;;;;12.64;100.00;92049.66;4978372;28;20087;-75
2022/05/25 01:46:02;;;;;;;12.13;5.95;;;;;;;12.62;97.51;92054.47;5006270;28;20503;-72
2022/05/25 01:48:32;;;;;;;532.97;17.88;;;;;;;12.68;100.00;92042.72;4994756;28;20038;-76
2022/05/25 01:51:05;;;;;;;1160.35;32.90;;;;;;;12.48;100.00;92049.34;4964761;28;20073;-76
2022/05/25 01:53:36;;;;;;;1595.35;51.85;;;;;;;12.50;100.00;92052.44;5010376;28;20041;-76
2022/05/25 01:56:05;;;;;;;1237.43;42.65;;;;;;;12.35;100.00;92052.13;4989959;28;20121;-75
2022/05/25 01:58:36;;;;;;;262.00;10.35;;;;;;;12.21;100.00;92060.91;5009941;28;20029;-75
2022/05/25 02:01:05;;;;;;;214.13;9.73;;;;;;;12.14;100.00;92055.34;5013491;28;20033;-76
2022/05/25 02:06:18;;;;;;;12.70;5.50;;;;;;;12.16;100.00;92058.44;4982054;28;20053;-75
2022/05/25 02:09:03;;;;;;;10.30;4.75;;;;;;;12.23;100.00;92069.25;4990942;28;20026;-75
2022/05/25 02:12:00;;;;;;;11.07;5.03;;;;;;;12.25;100.00;92059.22;5009610;28;20109;-76
2022/05/25 02:14:40;;;;;;;11.48;4.85;;;;;;;12.26;100.00;92055.50;4992802;28;20124;-76
2022/05/25 02:17:26;;;;;;;8.38;4.20;;;;;;;12.27;99.87;92048.38;5006027;28;20038;-75
2022/05/25 02:19:59;;;;;;;12.40;4.72;;;;;;;12.28;98.71;92050.72;5011990;28;20088;-75
2022/05/25 02:22:29;;;;;;;;;;;;;;;12.29;97.48;92047.03;5007054;28;20032;-76
2022/05/25 02:25:03;;;;;;;7.88;4.07;;;;;;;12.33;96.68;92041.91;4995032;28;19923;-75
2022/05/25 02:27:34;;;;;;;8.85;4.88;;;;;;;12.35;96.52;92045.00;5010794;28;20120;-75
2022/05/25 02:30:07;;;;;;;13.27;4.47;;;;;;;12.37;96.26;92055.22;4994735;28;20057;-75
2022/05/25 02:32:45;;;;;;;10.90;4.20;;;;;;;12.40;96.01;92046.72;5009918;28;20030;-75
2022/05/25 02:35:12;;;;;;;9.55;3.95;;;;;;;12.41;94.80;92048.28;5011697;28;20396;-76
2022/05/25 02:37:38;;;;;;;8.15;4.30;;;;;;;12.47;94.17;92047.81;5013342;28;20090;-75
2022/05/25 02:40:08;;;;;;;8.05;3.72;;;;;;;12.46;94.08;92050.75;5010986;28;20030;-75
2022/05/25 02:42:37;;;;;;;7.13;3.50;;;;;;;12.44;92.92;92052.91;5013227;28;20034;-75
2022/05/25 02:45:03;;;;;;;7.28;3.63;;;;;;;12.53;92.80;92060.78;4994631;28;20026;-76
2022/05/25 02:47:29;;;;;;;9.52;3.58;;;;;;;12.49;92.36;92060.63;5009062;28;20058;-75
2022/05/25 02:49:55;;;;;;;8.15;4.22;;;;;;;12.49;92.16;92060.63;4993101;28;20077;-76
2022/05/25 02:52:20;;;;;;;7.25;3.40;;;;;;;12.50;91.91;92067.44;5011118;28;20164;-76
2022/05/25 02:54:46;;;;;;;7.07;3.33;;;;;;;12.59;92.27;92073.47;4994224;28;20049;-76
2022/05/25 02:57:12;;;;;;;8.02;3.65;;;;;;;12.56;91.72;92070.66;4979372;28;20041;-76
2022/05/25 02:59:38;;;;;;;9.10;3.67;;;;;;;12.57;91.25;92078.25;5011692;28;20395;-76
2022/05/25 03:02:06;;;;;;;6.28;3.03;;;;;;;12.63;90.27;92079.66;4994013;28;20034;-76
2022/05/25 03:04:35;;;;;;;6.70;3.35;;;;;;;12.63;89.02;92081.47;5007217;28;20042;-76
2022/05/25 03:07:03;;;;;;;5.20;2.85;;;;;;;12.61;88.44;92084.44;5013497;28;20045;-76
2022/05/25 03:09:29;;;;;;;7.45;2.78;;;;;;;12.61;88.99;92078.38;4995086;28;20037;-75
2022/05/25 03:11:55;;;;;;;6.57;2.50;;;;;;;12.60;89.33;92082.88;5001531;28;20287;-76
2022/05/25 03:14:21;;;;;;;9.45;2.80;;;;;;;12.60;88.57;92088.13;5001225;28;20038;-76
2022/05/25 03:16:46;;;;;;;9.23;2.67;;;;;;;12.58;88.26;92085.03;4993326;28;20407;-76
2022/05/25 03:19:12;;;;;;;5.63;2.85;;;;;;;12.61;88.70;92084.44;5008651;28;20041;-75
2022/05/25 03:21:38;;;;;;;6.72;2.75;;;;;;;12.61;88.76;92087.06;5004095;28;20586;-76
2022/05/25 03:24:03;;;;;;;8.98;3.10;;;;;;;12.64;87.53;92089.06;5010528;28;20025;-76
2022/05/25 03:26:30;;;;;;;5.38;2.92;;;;;;;12.64;87.64;92094.31;4990239;28;20069;-76
2022/05/25 03:28:56;;;;;;;5.20;2.80;;;;;;;12.69;88.83;92088.91;4995713;28;20463;-76
2022/05/25 03:31:22;;;;;;;6.43;3.00;;;;;;;12.64;89.05;92094.31;4979942;28;20400;-76
2022/05/25 03:33:48;;;;;;;6.70;2.78;;;;;;;12.61;89.61;92088.88;4985649;28;20347;-76
2022/05/25 03:36:13;;;;;;;6.20;3.67;;;;;;;12.61;89.02;92092.31;4986171;28;20080;-75
2022/05/25 03:38:39;;;;;;;5.47;2.60;;;;;;;12.61;88.15;92097.56;5009044;28;20136;-76
2022/05/25 03:41:04;;;;;;;7.13;2.97;;;;;;;12.61;87.96;92094.13;4992957;28;20048;-76
2022/05/25 03:43:34;;;;;;;5.97;2.70;;;;;;;12.62;87.66;92106.97;4991341;28;20030;-76
2022/05/25 03:46:00;;;;;;;5.68;2.58;;;;;;;12.62;88.09;92096.47;4977460;28;20033;-75
2022/05/25 03:48:25;;;;;;;4.35;2.30;;;;;;;12.61;88.45;92102.00;5010569;28;20500;-75
2022/05/25 03:50:51;;;;;;;6.70;2.60;;;;;;;12.63;84.95;92100.66;4994354;28;20037;-76
2022/05/25 03:53:17;;;;;;;7.10;3.03;;;;;;;12.64;86.04;92110.06;4988580;28;20046;-76
2022/05/25 03:55:43;;;;;;;5.60;3.10;;;;;;;12.66;89.06;92099.25;5009462;28;20031;-76
2022/05/25 03:58:09;;;;;;;10.95;3.38;;;;;;;12.59;90.75;92104.97;4988073;28;20042;-76
2022/05/25 04:00:36;;;;;;;12.02;3.22;;;;;;;12.53;91.74;92110.66;4985622;28;20046;-75
2022/05/25 04:03:03;;;;;;;7.40;3.25;;;;;;;12.53;95.57;92111.44;4993774;28;20086;-75
2022/05/25 04:05:31;;;;;;;7.95;3.28;;;;;;;12.50;95.39;92112.06;5006062;28;20038;-75
2022/05/25 04:07:58;;;;;;;6.38;3.20;;;;;;;12.54;96.15;92114.84;5002736;28;20065;-75
2022/05/25 04:10:25;;;;;;;9.65;3.40;;;;;;;12.50;95.91;92120.69;4992700;28;20065;-76
2022/05/25 04:12:52;;;;;;;11.23;3.33;;;;;;;12.51;96.87;92121.47;5000360;28;20487;-76
2022/05/25 04:15:23;;;;;;;11.70;2.95;;;;;;;12.49;96.76;92128.88;5001802;28;20468;-75
2022/05/25 04:17:49;;;;;;;6.80;3.70;;;;;;;12.46;99.29;92129.50;5005069;28;20091;-75
2022/05/25 04:20:17;;;;;;;12.52;3.30;;;;;;;12.49;99.13;92126.25;4997812;28;20044;-77
2022/05/25 04:22:42;;;;;;;7.60;3.40;;;;;;;12.46;99.15;92132.13;5010617;28;20034;-77
2022/05/25 04:25:11;;;;;;;7.63;3.38;;;;;;;12.47;99.05;92141.53;4992900;28;20081;-77
2022/05/25 04:27:40;;;;;;;7.53;2.95;;;;;;;12.45;98.11;92147.09;4987235;28;20819;-75
2022/05/25 04:30:07;;;;;;;7.75;3.33;;;;;;;12.55;95.18;92153.91;4968568;28;20499;-76
2022/05/25 04:32:33;;;;;;;8.55;3.08;;;;;;;12.53;92.40;92155.31;5003724;28;20065;-76
2022/05/25 04:34:58;;;;;;;12.57;5.70;;;;;;;12.63;95.88;92152.38;5002925;28;20062;-77
2022/05/25 04:40:11;;;;;;;15.38;6.50;;;;;;;12.47;98.45;92154.66;4995077;28;20038;-76
2022/05/25 04:42:37;;;;;;;16.25;6.72;;;;;;;12.51;99.96;92150.34;5002792;28;20026;-77
2022/05/25 04:45:03;;;;;;;15.98;6.95;;;;;;;12.53;100.00;92150.06;4993119;28;20114;-80
2022/05/25 04:47:33;;;;;;;20.15;5.72;;;;;;;12.54;100.00;92154.22;4971894;28;20034;-77
2022/05/25 04:50:00;;;;;;;15.65;6.20;;;;;;;12.57;100.00;92162.25;4995144;28;20030;-77
2022/05/25 04:52:27;;;;;;;13.13;5.13;;;;;;;12.59;100.00;92162.72;4993780;28;20180;-77
2022/05/25 04:54:53;;;;;;;13.07;5.50;;;;;;;12.59;100.00;92165.34;5012913;28;20491;-78
2022/05/25 04:57:19;;;;;;;14.60;6.38;;;;;;;12.57;100.00;92162.25;4993498;28;20032;-77
2022/05/25 04:59:50;;;;;;;17.10;6.30;;;;;;;12.54;100.00;92169.97;5009894;28;20061;-76
2022/05/25 05:02:16;;;;;;;17.15;5.03;;;;;;;12.74;100.00;92181.75;5007739;28;20029;-76
2022/05/25 05:04:43;;;;;;;16.95;5.10;;;;;;;12.63;100.00;92183.88;4998024;28;20030;-78
2022/05/25 05:07:09;;;;;;;10.77;4.70;;;;;;;12.57;100.00;92193.78;5002800;28;20033;-77
2022/05/25 05:09:36;;;;;;;11.73;5.55;;;;;;;12.54;100.00;92183.09;4989825;28;20037;-76
2022/05/25 05:12:02;;;;;;;9.90;5.57;;;;;;;12.56;100.00;92196.69;5003019;28;20486;-75
2022/05/25 05:14:28;;;;;;;15.35;5.28;;;;;;;12.58;100.00;92197.16;4974438;28;20504;-76
2022/05/25 05:16:59;;;;;;;11.50;6.15;;;;;;;12.56;100.00;92202.72;4992726;28;20053;-76
2022/05/25 05:19:36;;;;;;;15.35;5.82;;;;;;;12.56;100.00;92200.09;4994151;28;20108;-76
2022/05/25 05:22:08;;;;;;;14.73;4.75;;;;;;;12.58;100.00;92200.56;4990440;28;20045;-76
2022/05/25 05:24:34;;;;;;;11.07;4.97;;;;;;;12.61;100.00;92191.28;4973625;28;20050;-76
2022/05/25 05:27:00;;;;;;;17.90;5.30;;;;;;;12.56;100.00;92207.19;4997154;28;20034;-75
2022/05/25 05:29:28;;;;;;;14.25;5.45;;;;;;;12.58;100.00;92189.28;5008504;28;20038;-76
2022/05/25 05:31:54;;;;;;;14.43;6.00;;;;;;;12.58;100.00;92182.19;4991345;28;20679;-75
2022/05/25 05:34:19;;;;;;;16.95;6.47;;;;;;;12.59;100.00;92196.88;5002889;28;20033;-75
2022/05/25 05:36:51;;;;;;;16.88;7.70;;;;;;;12.61;100.00;92204.41;5001797;28;20034;-75
2022/05/25 05:39:18;;;;;;;30.10;6.77;;;;;;;12.69;100.00;92207.06;5008512;28;20038;-75
2022/05/25 05:41:47;;;;;;;20.83;6.80;;;;;;;12.60;100.00;92229.91;4988903;28;20077;-76
2022/05/25 05:44:16;;;;;;;41.53;8.85;;;;;;;12.50;100.00;92227.56;4992209;28;20030;-75
2022/05/25 05:46:43;;;;;;;10.07;4.63;;;;;;;12.36;100.00;92234.75;4992969;28;20044;-76
2022/05/25 05:49:10;;;;;;;10.95;4.63;;;;;;;12.27;100.00;92230.25;4991930;28;20042;-75
2022/05/25 05:51:37;;;;;;;11.70;5.10;;;;;;;12.25;100.00;92232.41;4974884;28;20451;-75
2022/05/25 05:54:03;;;;;;;14.07;5.22;;;;;;;12.29;100.00;92236.00;4988827;28;20096;-76
2022/05/25 05:56:32;;;;;;;10.55;5.13;;;;;;;12.37;100.00;92236.31;5006857;28;20038;-76
2022/05/25 05:58:58;;;;;;;22.10;6.78;;;;;;;12.46;100.00;92239.75;4994272;28;20037;-76
2022/05/25 06:01:24;;;;;;;16.00;6.20;;;;;;;12.50;100.00;92241.47;4993515;28;20034;-76
2022/05/25 06:03:50;;;;;;;20.52;6.95;;;;;;;12.65;100.00;92245.56;4993334;28;20365;-76
2022/05/25 06:06:15;;;;;;;18.00;5.05;;;;;;;12.69;100.00;92251.72;4976706;28;20462;-76
2022/05/25 06:08:46;;;;;;;12.43;4.10;;;;;;;12.73;100.00;92253.75;5009416;28;20030;-76
2022/05/25 06:11:16;;;;;;;12.48;4.03;;;;;;;12.70;98.90;92249.88;4975660;28;20042;-76
2022/05/25 06:13:42;;;;;;;8.60;3.50;;;;;;;12.76;97.34;92269.66;4992036;28;20078;-76
2022/05/25 06:21:37;;;;;;;14.13;5.85;;;;;;;12.42;100.00;92271.06;4993511;28;20136;-76
2022/05/25 06:24:04;;;;;;;11.23;5.85;;;;;;;12.22;100.00;92272.38;4999958;28;20145;-76
2022/05/25 06:26:31;;;;;;;14.52;6.80;;;;;;;12.15;100.00;92253.66;5014084;28;20057;-75
2022/05/25 06:28:58;;;;;;;20.33;7.15;;;;;;;12.13;100.00;92252.41;5013760;28;20038;-76
2022/05/25 06:31:25;;;;;;;12.05;6.30;;;;;;;12.17;100.00;92243.63;5013848;28;20041;-76
2022/05/25 06:33:51;;;;;;;11.55;5.45;;;;;;;12.24;100.00;92249.22;5013562;28;20045;-75
2022/05/25 06:36:20;;;;;;;9.13;4.65;;;;;;;12.31;100.00;92248.03;5013332;28;20064;-77
2022/05/25 06:38:46;;;;;;;8.13;3.72;;;;;;;12.38;100.00;92245.72;5012993;28;20049;-76
2022/05/25 06:41:13;;;;;;;6.82;2.88;;;;;;;12.47;99.08;92251.78;5013615;28;20121;-76
2022/05/25 06:43:39;;;;;;;7.47;3.17;;;;;;;12.66;94.20;92248.94;4978555;28;20030;-76
2022/05/25 06:46:06;;;;;;;8.65;3.63;;;;;;;12.75;94.73;92262.09;5011696;28;20083;-76
2022/05/25 06:48:31;;;;;;;9.48;3.30;;;;;;;12.81;93.20;92258.25;4973414;28;20042;-76
2022/05/25 06:50:57;;;;;;;8.52;3.53;;;;;;;12.89;94.62;92258.28;4977673;28;20034;-76
2022/05/25 06:53:22;;;;;;;12.95;3.47;;;;;;;12.98;93.94;92258.28;4991668;28;20117;-76
2022/05/25 06:55:48;;;;;;;10.00;3.60;;;;;;;13.26;94.73;92261.44;4979905;28;20042;-75
2022/05/25 06:58:14;;;;;;;10.98;4.35;;;;;;;13.32;95.72;92264.72;5013234;28;20040;-77
2022/05/25 07:00:40;;;;;;;12.18;4.00;;;;;;;13.32;96.92;92275.22;4994032;28;20053;-77
2022/05/25 07:03:06;;;;;;;10.10;4.78;;;;;;;13.27;98.81;92283.25;4995960;28;20062;-76
2022/05/25 07:05:34;;;;;;;11.48;4.80;;;;;;;13.15;98.96;92296.19;4995218;28;20702;-76
2022/05/25 07:08:00;;;;;;;10.98;4.35;;;;;;;12.98;97.53;92294.31;4995069;28;20061;-76
2022/05/25 07:10:25;;;;;;;13.63;4.72;;;;;;;13.07;98.74;92303.75;5008995;28;20484;-76
2022/05/25 07:12:51;;;;;;;10.35;4.05;;;;;;;13.10;94.95;92311.06;4980415;28;20031;-76
2022/05/25 07:15:16;;;;;;;9.45;3.95;;;;;;;13.22;94.11;92307.06;4963549;28;20408;-76
2022/05/25 07:17:42;;;;;;;9.90;4.05;;;;;;;13.33;93.64;92317.00;5012799;28;20033;-76
2022/05/25 07:20:09;;;;;;;14.27;3.65;;;;;;;13.36;93.94;92306.94;5012948;28;20100;-76
2022/05/25 07:22:36;;;;;;;9.73;4.35;;;;;;;13.42;92.82;92311.75;5012501;28;20022;-77
2022/05/25 07:25:02;;;;;;;7.70;4.13;;;;;;;13.53;93.28;92313.00;5012907;28;20140;-76
2022/05/25 07:27:29;;;;;;;9.70;3.67;;;;;;;13.74;93.36;92317.66;4978913;28;20120;-76
2022/05/25 07:29:54;;;;;;;8.65;3.95;;;;;;;14.01;93.90;92313.94;5012842;28;20038;-76
2022/05/25 07:32:22;;;;;;;16.30;4.80;;;;;;;14.20;93.11;92318.09;5012256;28;20505;-76
2022/05/25 07:34:54;;;;;;;10.05;4.07;;;;;;;14.37;88.64;92316.22;5008457;28;20031;-77
2022/05/25 07:37:23;;;;;;;7.82;3.15;;;;;;;14.60;88.19;92318.66;5012075;28;20038;-77
2022/05/25 07:39:53;;;;;;;6.80;2.90;;;;;;;15.09;84.54;92327.00;5014327;28;20038;-77
2022/05/25 07:42:21;;;;;;;8.00;3.83;;;;;;;15.31;84.27;92327.81;4996920;28;20085;-77
2022/05/25 07:45:05;;;;;;;5.10;2.90;;;;;;;15.30;83.44;92326.28;5014112;28;20457;-77
2022/05/25 07:47:32;;;;;;;10.57;3.05;;;;;;;15.39;81.56;92335.69;4996545;28;20499;-77
2022/05/25 07:49:58;;;;;;;7.15;3.00;;;;;;;15.20;78.95;92332.72;4996680;28;20045;-76
2022/05/25 07:52:26;;;;;;;7.82;2.88;;;;;;;15.27;82.95;92340.88;5014300;28;20172;-77
2022/05/25 07:54:54;;;;;;;6.47;3.20;;;;;;;15.61;82.11;92339.16;5014732;28;20069;-77
2022/05/25 07:57:19;;;;;;;9.63;3.15;;;;;;;15.81;87.63;92346.34;4980544;28;20038;-77
2022/05/25 07:59:45;;;;;;;6.78;3.08;;;;;;;15.98;85.70;92342.78;5013133;28;20046;-76
2022/05/25 08:07:48;;;;;;;8.27;4.10;;;;;;;16.02;85.57;92348.19;5014611;28;20041;-76
2022/05/25 08:10:18;;;;;;;10.48;4.80;;;;;;;16.14;88.48;92353.53;5014577;28;20033;-77
2022/05/25 08:12:45;;;;;;;9.38;4.13;;;;;;;15.99;83.52;92360.19;5013798;28;20049;-77
2022/05/25 08:15:13;;;;;;;9.02;3.95;;;;;;;16.16;83.56;92361.91;5011867;28;20034;-77
2022/05/25 08:17:40;;;;;;;9.77;4.13;;;;;;;16.27;84.48;92362.28;5014885;28;20052;-77
2022/05/25 08:20:06;;;;;;;8.30;3.38;;;;;;;16.43;78.86;92365.09;4996618;28;20041;-77
2022/05/25 08:22:33;;;;;;;15.63;3.90;;;;;;;16.51;79.18;92366.91;5013978;28;20535;-77
2022/05/25 08:24:59;;;;;;;8.07;3.03;;;;;;;16.21;84.27;92368.84;5013833;28;20048;-77
2022/05/25 08:27:25;;;;;;;8.77;3.20;;;;;;;16.44;80.82;92370.06;5014818;28;20472;-77
2022/05/25 08:29:51;;;;;;;4.47;2.40;;;;;;;16.65;78.25;92371.88;4998156;28;20038;-77
2022/05/25 08:32:16;;;;;;;7.93;3.65;;;;;;;16.89;77.35;92381.00;5013867;28;20030;-77
2022/05/25 08:34:43;;;;;;;10.85;3.38;;;;;;;16.78;76.43;92383.28;5014014;28;20049;-77
2022/05/25 08:37:10;;;;;;;8.80;3.90;;;;;;;16.79;77.48;92380.31;5014143;28;20407;-77
2022/05/25 08:39:36;;;;;;;9.70;3.10;;;;;;;16.71;77.29;92380.41;4997852;28;20224;-76
2022/05/25 08:42:05;;;;;;;7.70;2.70;;;;;;;16.56;76.41;92379.91;4979643;28;20045;-76
2022/05/25 08:44:32;;;;;;;16.70;3.22;;;;;;;16.63;77.05;92379.38;5013093;28;20384;-76
2022/05/25 08:47:00;;;;;;;6.65;3.40;;;;;;;16.47;78.84;92378.44;5011522;28;20034;-76
2022/05/25 08:49:30;;;;;;;6.88;3.42;;;;;;;16.49;77.69;92387.59;4995070;28;20037;-75
2022/05/25 08:51:58;;;;;;;10.77;3.17;;;;;;;16.74;79.25;92388.44;4983013;28;20072;-77
2022/05/25 08:54:27;;;;;;;9.18;3.30;;;;;;;16.79;78.61;92388.25;4995989;28;20045;-76
2022/05/25 08:57:46;;;;;;;10.02;3.63;;;;;;;16.72;79.38;92385.34;4997380;28;20188;-76
2022/05/25 09:00:17;;;;;;;6.68;3.00;;;;;;;16.64;79.66;92380.94;4933920;29;20563;-76
2022/05/25 09:03:07;;;;;;;12.60;4.13;;;;;;;16.87;81.18;92388.50;4932726;29;20540;-76
2022/05/25 09:05:40;;;;;;;10.25;3.88;;;;;;;16.95;78.93;92384.97;4994643;28;20549;-77
2022/05/25 09:08:25;;;;;;;6.68;3.13;;;;;;;16.82;77.96;92392.13;4995688;28;20459;-77
2022/05/25 09:11:00;;;;;;;6.35;3.10;;;;;;;16.99;79.20;92391.16;4993858;28;20030;-76
2022/05/25 09:13:36;;;;;;;12.38;3.65;;;;;;;16.86;75.51;92398.28;5005890;28;20057;-76
2022/05/25 09:16:18;;;;;;;8.38;3.70;;;;;;;17.15;77.33;92401.88;4992378;28;20076;-76
2022/05/25 09:18:44;;;;;;;;;;;;;;;17.23;76.37;92401.03;4989602;28;20488;-76
2022/05/25 09:21:11;;;;;;;9.27;3.25;;;;;;;17.22;77.38;92413.44;5012114;28;19915;-76
2022/05/25 09:23:37;;;;;;;8.07;3.50;;;;;;;17.44;75.92;92419.44;4994005;28;20026;-76
2022/05/25 09:26:03;;;;;;;6.57;2.90;;;;;;;17.40;75.51;92414.03;4995629;28;20042;-76
2022/05/25 09:28:33;;;;;;;6.38;3.10;;;;;;;17.19;74.76;92414.13;4994884;28;20116;-76
2022/05/25 09:31:02;;;;;;;7.35;2.90;;;;;;;16.93;74.08;92419.69;5011462;28;20075;-77
2022/05/25 09:33:40;;;;;;;5.80;2.88;;;;;;;17.16;76.10;92428.00;5014220;28;20033;-76
2022/05/25 09:36:38;;;;;;;5.65;3.00;;;;;;;17.21;76.50;92430.44;5010139;28;20121;-77
2022/05/25 09:39:13;;;;;;;4.43;2.40;;;;;;;17.05;75.86;92432.16;4977480;28;20100;-77
2022/05/25 09:41:44;;;;;;;9.50;3.50;;;;;;;17.06;74.28;92434.47;5002666;28;20448;-77
2022/05/25 09:44:14;;;;;;;7.10;3.55;;;;;;;17.02;76.13;92430.16;4994917;28;20038;-77
2022/05/25 09:46:51;;;;;;;11.10;3.45;;;;;;;16.93;77.20;92434.78;5012110;28;20057;-77
2022/05/25 09:49:40;;;;;;;6.07;3.50;;;;;;;17.14;78.34;92438.16;4977087;28;20029;-77
2022/05/25 09:52:19;;;;;;;7.57;3.35;;;;;;;16.81;78.75;92444.22;4988218;28;20029;-76
2022/05/25 09:55:18;;;;;;;7.75;3.50;;;;;;;16.93;79.21;92450.63;5014025;28;20109;-76
2022/05/25 09:57:51;;;;;;;10.05;3.35;;;;;;;16.85;77.47;92433.75;4995106;28;20037;-77
2022/05/25 10:00:21;;;;;;;7.72;3.08;;;;;;;16.80;75.99;92447.97;4980464;28;20409;-76
2022/05/25 10:02:47;;;;;;;10.55;3.88;;;;;;;16.87;77.91;92441.38;4993694;28;20041;-77
2022/05/25 10:05:27;;;;;;;5.88;3.42;;;;;;;17.03;76.67;92444.94;4996123;28;20435;-76
2022/05/25 10:07:58;;;;;;;6.78;3.58;;;;;;;16.96;77.58;92452.66;5003020;28;20038;-77
2022/05/25 10:10:31;;;;;;;8.35;3.70;;;;;;;16.87;78.50;92450.06;4997039;28;20042;-76
2022/05/25 10:13:01;;;;;;;6.72;3.42;;;;;;;16.81;76.73;92454.78;5013097;28;20030;-76
2022/05/25 10:15:36;;;;;;;8.45;4.00;;;;;;;17.03;76.47;92453.66;5014346;28;20047;-76
2022/05/25 10:18:04;;;;;;;10.27;3.88;;;;;;;17.14;76.24;92459.31;4997276;28;20084;-76
2022/05/25 10:20:47;;;;;;;11.32;4.22;;;;;;;17.19;75.11;92459.09;4996929;28;20026;-77
2022/05/25 10:23:24;;;;;;;9.27;3.55;;;;;;;17.05;75.42;92459.38;5013819;28;20037;-76
2022/05/25 10:25:55;;;;;;;8.60;4.00;;;;;;;16.91;75.05;92460.75;5015785;28;20049;-77
2022/05/25 10:28:44;;;;;;;10.32;3.92;;;;;;;17.05;76.77;92466.56;5015543;28;20037;-76
2022/05/25 10:37:25;;;;;;;8.70;4.13;;;;;;;17.23;77.52;92459.22;5009061;28;20057;-77
2022/05/25 10:39:54;;;;;;;10.52;3.85;;;;;;;17.51;75.39;92464.66;4995488;28;20436;-77
2022/05/25 10:42:45;;;;;;;12.27;4.25;;;;;;;17.53;74.01;92470.38;4997561;28;20030;-76
2022/05/25 10:45:20;;;;;;;6.88;3.80;;;;;;;17.68;73.97;92469.75;4991545;28;20500;-76
2022/05/25 10:48:07;;;;;;;8.25;3.25;;;;;;;17.43;74.38;92473.47;4992207;28;20472;-77
2022/05/25 10:51:02;;;;;;;10.13;3.58;;;;;;;17.33;74.34;92474.66;4979874;28;20061;-76
2022/05/25 10:53:37;;;;;;;9.77;3.88;;;;;;;17.05;77.54;92479.78;4994281;28;20092;-76
2022/05/25 10:56:27;;;;;;;7.63;3.58;;;;;;;17.10;76.55;92474.28;4992608;28;20466;-77
2022/05/25 10:59:34;;;;;;;7.63;4.10;;;;;;;17.27;74.93;92468.81;5005345;28;20534;-76
2022/05/25 11:02:31;;;;;;;7.45;3.85;;;;;;;17.32;74.80;92472.34;4931205;29;20527;-76
2022/05/25 11:04:59;;;;;;;7.97;3.80;;;;;;;17.46;73.73;92470.16;5002119;28;20041;-76
2022/05/25 11:07:32;;;;;;;9.00;3.60;;;;;;;17.65;74.76;92481.00;4995333;28;20096;-76
2022/05/25 11:10:19;;;;;;;9.07;4.00;;;;;;;17.38;74.01;92476.31;5013331;28;20033;-76
2022/05/25 11:13:14;;;;;;;6.38;3.70;;;;;;;17.31;75.72;92476.09;4979191;28;20500;-76
2022/05/25 11:16:01;;;;;;;8.15;4.07;;;;;;;17.63;74.26;92483.22;4991270;28;20559;-76
2022/05/25 11:19:14;;;;;;;5.57;3.05;;;;;;;18.09;72.56;92486.53;5012213;28;20484;-76
2022/05/25 11:21:54;;;;;;;7.18;3.70;;;;;;;17.97;74.39;92486.56;4932695;29;20469;-76
2022/05/25 11:24:43;;;;;;;6.68;3.78;;;;;;;17.58;73.97;92479.97;4931937;29;20040;-76
2022/05/25 11:27:27;;;;;;;11.43;4.28;;;;;;;17.64;75.86;92487.38;4987217;28;20042;-76
2022/05/25 11:30:21;;;;;;;8.23;3.65;;;;;;;17.75;75.81;92490.38;5005433;28;20432;-76
2022/05/25 11:33:16;;;;;;;8.85;3.97;;;;;;;17.57;75.30;92486.41;4975030;28;20084;-76
2022/05/25 11:35:52;;;;;;;8.32;4.03;;;;;;;17.54;74.98;92490.47;5003095;28;20623;-75
2022/05/25 11:38:36;;;;;;;9.02;3.95;;;;;;;17.55;76.98;92497.28;4987663;28;20571;-76
2022/05/25 11:41:20;;;;;;;10.20;4.30;;;;;;;17.27;76.37;92487.34;4981220;28;20041;-76
2022/05/25 11:44:20;;;;;;;9.10;3.80;;;;;;;17.46;75.67;92494.75;4978805;28;20121;-76
2022/05/25 11:46:47;;;;;;;9.32;3.83;;;;;;;17.76;73.81;92499.09;4978021;28;20091;-75
2022/05/25 11:49:30;;;;;;;8.48;3.97;;;;;;;18.04;73.20;92499.25;4992082;28;20038;-76
2022/05/25 11:52:34;;;;;;;8.88;4.00;;;;;;;18.30;69.10;92494.34;4991878;28;20477;-76
2022/05/25 11:55:28;;;;;;;12.57;3.75;;;;;;;18.27;69.26;92500.31;4991841;28;20038;-76
2022/05/25 11:58:18;;;;;;;7.13;3.92;;;;;;;18.22;73.48;92500.56;4991235;28;20496;-76
2022/05/25 12:01:13;;;;;;;8.77;3.72;;;;;;;18.26;72.96;92508.59;4988847;28;20022;-76
2022/05/25 12:03:47;;;;;;;9.90;4.05;;;;;;;18.01;72.62;92508.63;4986832;28;20566;-76
2022/05/25 12:06:41;;;;;;;10.63;4.35;;;;;;;18.07;72.68;92496.69;4990993;28;20048;-76
2022/05/25 12:09:57;;;;;;;7.07;3.22;;;;;;;18.31;71.00;92497.78;4992242;28;20038;-76
2022/05/25 12:12:53;;;;;;;8.27;3.47;;;;;;;18.27;69.55;92510.16;4961206;28;20141;-75